createdAt,value
2023-05-15T00:00:49.573Z,35.83
2023-05-15T00:03:16.361Z,35.96
2023-05-15T00:05:43.167Z,35.91
2023-05-15T00:08:09.723Z,36.12
2023-05-15T00:10:36.316Z,35.99
2023-05-15T00:13:02.840Z,36.16
2023-05-15T00:15:29.609Z,36.20
2023-05-15T00:17:56.194Z,36.28
2023-05-15T00:20:22.755Z,36.43
2023-05-15T00:22:49.374Z,36.25
2023-05-15T00:25:15.910Z,36.26
2023-05-15T00:27:42.441Z,36.48
2023-05-15T00:30:09.410Z,36.41
2023-05-15T00:32:35.963Z,36.44
2023-05-15T00:35:02.488Z,36.46
2023-05-15T00:37:31.067Z,36.63
2023-05-15T00:39:57.636Z,36.63
2023-05-15T00:42:25.116Z,36.72
2023-05-15T00:44:52.694Z,36.73
2023-05-15T00:47:21.112Z,36.74
2023-05-15T00:49:47.849Z,36.86
2023-05-15T00:52:14.894Z,37.17
2023-05-15T00:54:42.086Z,37.15
2023-05-15T00:57:09.522Z,37.36
2023-05-15T00:59:36.553Z,37.71
2023-05-15T01:02:04.049Z,37.62
2023-05-15T01:04:31.284Z,37.64
2023-05-15T01:06:57.962Z,37.62
2023-05-15T01:09:25.636Z,37.54
2023-05-15T01:11:54.200Z,37.35
2023-05-15T01:14:20.804Z,37.61
2023-05-15T01:16:47.454Z,37.68
2023-05-15T01:19:14.213Z,37.53
2023-05-15T01:21:57.882Z,37.51
2023-05-15T01:24:55.770Z,37.35
2023-05-15T01:27:37.413Z,37.47
2023-05-15T01:30:25.247Z,37.49
2023-05-15T01:33:26.086Z,37.54
2023-05-15T01:36:00.131Z,37.40
2023-05-15T01:38:35.641Z,37.96
2023-05-15T01:41:06.783Z,37.70
2023-05-15T01:43:33.240Z,36.77
2023-05-15T01:46:01.359Z,37.73
2023-05-15T01:48:28.689Z,37.90
2023-05-15T01:50:58.322Z,38.23
2023-05-15T01:53:25.437Z,38.55
2023-05-15T01:55:52.473Z,38.43
2023-05-15T01:58:19.127Z,38.70
2023-05-15T02:00:46.703Z,38.89
2023-05-15T02:03:13.768Z,39.01
2023-05-15T02:05:41.291Z,39.07
2023-05-15T02:08:07.839Z,38.87
2023-05-15T02:10:35.126Z,39.03
2023-05-15T02:13:01.990Z,38.82
2023-05-15T02:15:29.213Z,38.83
2023-05-15T02:17:56.167Z,38.74
2023-05-15T02:20:22.682Z,39.38
2023-05-15T02:22:49.219Z,39.29
2023-05-15T02:25:16.068Z,39.42
2023-05-15T02:27:51.600Z,39.11
2023-05-15T02:30:56.147Z,39.08
2023-05-15T02:33:35.923Z,39.43
2023-05-15T02:36:05.682Z,39.38
2023-05-15T02:38:46.958Z,39.81
2023-05-15T02:41:13.596Z,38.93
2023-05-15T02:43:40.992Z,39.41
2023-05-15T02:46:08.120Z,39.82
2023-05-15T02:48:35.674Z,40.02
2023-05-15T02:51:02.587Z,39.99
2023-05-15T02:53:29.786Z,39.56
2023-05-15T02:55:56.473Z,39.76
2023-05-15T02:58:23.096Z,39.66
2023-05-15T03:00:49.720Z,39.75
2023-05-15T03:03:16.439Z,39.42
2023-05-15T03:05:43.006Z,39.89
2023-05-15T03:08:09.568Z,39.60
2023-05-15T03:10:36.111Z,39.62
2023-05-15T03:13:02.733Z,39.47
2023-05-15T03:15:29.249Z,39.97
2023-05-15T03:17:55.801Z,40.21
2023-05-15T03:20:22.423Z,40.14
2023-05-15T03:22:49.027Z,40.49
2023-05-15T03:25:15.800Z,40.56
2023-05-15T03:27:42.292Z,40.78
2023-05-15T03:30:09.277Z,40.66
2023-05-15T03:32:35.805Z,40.54
2023-05-15T03:35:02.418Z,40.37
2023-05-15T03:37:29.005Z,40.24
2023-05-15T03:39:55.709Z,40.29
2023-05-15T03:42:23.690Z,40.14
2023-05-15T03:44:50.809Z,40.34
2023-05-15T03:47:18.063Z,40.26
2023-05-15T03:49:45.928Z,40.15
2023-05-15T03:52:12.613Z,40.31
2023-05-15T03:54:39.122Z,40.11
2023-05-15T03:57:06.504Z,40.37
2023-05-15T03:59:33.009Z,40.32
2023-05-15T04:02:04.697Z,40.52
2023-05-15T04:04:31.766Z,40.54
2023-05-15T04:06:58.298Z,40.32
2023-05-15T04:09:24.788Z,40.43
2023-05-15T04:11:51.316Z,40.65
2023-05-15T04:14:17.825Z,40.31
2023-05-15T04:16:44.552Z,40.39
2023-05-15T04:19:11.215Z,40.26
2023-05-15T04:21:37.823Z,40.09
2023-05-15T04:24:04.428Z,40.46
2023-05-15T04:26:31.557Z,40.59
2023-05-15T04:29:03.999Z,40.38
2023-05-15T04:31:31.834Z,40.21
2023-05-15T04:33:58.666Z,40.29
2023-05-15T04:36:25.448Z,40.50
2023-05-15T04:38:51.968Z,40.28
2023-05-15T04:41:18.692Z,40.09
2023-05-15T04:43:45.545Z,40.04
2023-05-15T04:46:12.325Z,40.16
2023-05-15T04:48:38.860Z,40.13
2023-05-15T04:51:05.414Z,40.02
2023-05-15T04:53:31.942Z,39.67
2023-05-15T04:55:58.443Z,40.08
2023-05-15T04:58:24.967Z,39.80
2023-05-15T05:00:51.467Z,39.89
2023-05-15T05:03:18.118Z,39.83
2023-05-15T05:05:44.657Z,39.80
2023-05-15T05:08:11.227Z,39.73
2023-05-15T05:10:37.740Z,39.62
2023-05-15T05:13:04.273Z,39.35
2023-05-15T05:15:30.795Z,38.98
2023-05-15T05:17:57.366Z,38.98
2023-05-15T05:20:23.916Z,38.66
2023-05-15T05:22:50.461Z,38.68
2023-05-15T05:25:17.056Z,38.64
2023-05-15T05:27:43.615Z,38.35
2023-05-15T05:30:10.497Z,38.22
2023-05-15T05:32:37.118Z,37.97
2023-05-15T05:35:04.086Z,37.75
2023-05-15T05:37:30.666Z,37.57
2023-05-15T05:39:57.173Z,37.48
2023-05-15T05:42:23.722Z,37.18
2023-05-15T05:44:50.432Z,37.28
2023-05-15T05:47:17.020Z,37.14
2023-05-15T05:49:43.633Z,37.12
2023-05-15T05:52:10.332Z,36.86
2023-05-15T05:54:37.109Z,36.59
2023-05-15T05:57:03.674Z,36.46
2023-05-15T05:59:30.605Z,36.09
2023-05-15T06:01:57.336Z,35.89
2023-05-15T06:04:24.064Z,35.90
2023-05-15T06:06:50.758Z,35.53
2023-05-15T06:09:18.032Z,35.25
2023-05-15T06:11:45.559Z,35.24
2023-05-15T06:14:12.198Z,35.30
2023-05-15T06:16:38.724Z,34.84
2023-05-15T06:19:05.587Z,34.33
2023-05-15T06:21:32.164Z,34.10
2023-05-15T06:23:58.683Z,34.03
2023-05-15T06:26:26.223Z,34.19
2023-05-15T06:28:52.779Z,34.12
2023-05-15T06:31:19.393Z,33.62
2023-05-15T06:33:45.974Z,33.23
2023-05-15T06:36:12.494Z,33.19
2023-05-15T06:38:39.618Z,32.68
2023-05-15T06:41:06.161Z,32.77
2023-05-15T06:43:32.656Z,32.80
2023-05-15T06:45:59.250Z,32.77
2023-05-15T06:48:25.996Z,32.34
2023-05-15T06:50:52.808Z,32.00
2023-05-15T06:53:20.970Z,31.92
2023-05-15T06:55:47.520Z,31.70
2023-05-15T06:58:14.112Z,31.41
2023-05-15T07:00:40.694Z,31.55
2023-05-15T07:03:07.242Z,31.53
2023-05-15T07:05:33.844Z,30.91
2023-05-15T07:08:00.571Z,30.38
2023-05-15T07:10:27.298Z,30.65
2023-05-15T07:12:54.564Z,29.60
2023-05-15T07:15:21.100Z,29.84
2023-05-15T07:17:47.746Z,29.23
2023-05-15T07:20:14.340Z,28.33
2023-05-15T07:22:52.015Z,29.19
2023-05-15T07:25:23.152Z,28.90
2023-05-15T07:27:49.903Z,28.91
2023-05-15T07:30:16.629Z,28.39
2023-05-15T07:32:43.346Z,27.75
2023-05-15T07:35:11.550Z,26.93
2023-05-15T07:37:38.535Z,26.64
2023-05-15T07:40:05.841Z,26.51
2023-05-15T07:42:32.392Z,26.31
2023-05-15T07:44:58.891Z,26.10
2023-05-15T07:47:25.586Z,25.26
2023-05-15T07:49:52.160Z,25.01
2023-05-15T07:52:19.292Z,24.69
2023-05-15T07:54:45.794Z,24.60
2023-05-15T07:57:13.089Z,24.10
2023-05-15T07:59:39.722Z,23.88
2023-05-15T08:02:06.927Z,23.62
2023-05-15T08:04:33.673Z,23.57
2023-05-15T08:07:00.432Z,23.82
2023-05-15T08:09:26.960Z,24.07
2023-05-15T08:11:55.925Z,23.63
2023-05-15T08:14:22.519Z,23.28
2023-05-15T08:16:49.959Z,22.79
2023-05-15T08:19:16.574Z,22.69
2023-05-15T08:21:43.195Z,23.33
2023-05-15T08:24:09.783Z,23.41
2023-05-15T08:26:36.380Z,23.41
2023-05-15T08:29:02.977Z,23.90
2023-05-15T08:31:29.681Z,23.86
2023-05-15T08:33:56.194Z,24.15
2023-05-15T08:36:22.938Z,24.33
2023-05-15T08:38:49.698Z,24.11
2023-05-15T08:41:38.666Z,23.73
2023-05-15T08:44:09.219Z,24.23
2023-05-15T08:46:36.030Z,24.68
2023-05-15T08:49:15.859Z,23.72
2023-05-15T08:51:42.715Z,23.70
2023-05-15T08:54:10.112Z,23.79
2023-05-15T08:56:36.677Z,23.62
2023-05-15T08:59:04.208Z,23.77
2023-05-15T09:01:31.067Z,24.04
2023-05-15T09:03:57.656Z,24.66
2023-05-15T09:06:24.980Z,23.59
2023-05-15T09:08:52.253Z,23.43
2023-05-15T09:11:18.815Z,23.83
2023-05-15T09:13:45.361Z,23.93
2023-05-15T09:16:11.879Z,23.75
2023-05-15T09:18:39.072Z,23.42
2023-05-15T09:21:25.403Z,23.26
2023-05-15T09:23:52.938Z,24.05
2023-05-15T09:26:19.529Z,23.58
2023-05-15T09:28:46.451Z,24.27
2023-05-15T09:31:13.483Z,24.66
2023-05-15T09:33:41.589Z,24.77
2023-05-15T09:36:09.409Z,25.60
2023-05-15T09:38:42.367Z,24.85
2023-05-15T09:41:09.440Z,24.94
2023-05-15T09:43:40.642Z,25.11
2023-05-15T09:46:13.106Z,25.12
2023-05-15T09:48:39.879Z,25.10
2023-05-15T09:51:14.735Z,25.06
2023-05-15T09:53:41.801Z,25.63
2023-05-15T09:56:10.416Z,25.21
2023-05-15T09:58:37.025Z,25.96
2023-05-15T10:01:04.253Z,25.03
2023-05-15T10:03:30.893Z,25.04
2023-05-15T10:06:01.635Z,24.58
2023-05-15T10:08:29.189Z,24.57
2023-05-15T10:10:59.872Z,24.24
2023-05-15T10:13:26.695Z,24.23
2023-05-15T10:15:53.961Z,24.07
2023-05-15T10:18:22.184Z,24.52
2023-05-15T10:20:49.361Z,24.78
2023-05-15T10:23:17.890Z,25.31
2023-05-15T10:25:56.313Z,23.39
2023-05-15T10:28:23.124Z,24.58
2023-05-15T10:30:49.684Z,24.96
2023-05-15T10:33:16.260Z,24.70
2023-05-15T10:35:43.363Z,23.75
2023-05-15T10:38:10.776Z,24.47
2023-05-15T10:40:39.320Z,23.81
2023-05-15T10:43:06.234Z,23.14
2023-05-15T10:45:33.393Z,22.73
2023-05-15T10:48:00.708Z,22.61
2023-05-15T10:50:27.619Z,23.04
2023-05-15T10:52:55.314Z,22.59
2023-05-15T10:55:22.484Z,22.11
2023-05-15T10:57:49.016Z,22.74
2023-05-15T11:00:27.074Z,22.53
2023-05-15T11:02:56.559Z,22.45
2023-05-15T11:05:23.736Z,22.06
2023-05-15T11:08:15.333Z,21.82
2023-05-15T11:10:42.003Z,21.98
2023-05-15T11:13:08.699Z,22.83
2023-05-15T11:15:43.253Z,22.21
2023-05-15T11:18:09.915Z,23.01
2023-05-15T11:20:43.271Z,22.80
2023-05-15T11:23:09.990Z,23.29
2023-05-15T11:25:37.130Z,22.56
2023-05-15T11:28:04.748Z,23.47
2023-05-15T11:30:35.771Z,22.80
2023-05-15T11:33:08.604Z,22.89
2023-05-15T11:35:43.255Z,23.84
2023-05-15T11:38:09.721Z,23.17
2023-05-15T11:40:49.797Z,23.00
2023-05-15T11:43:25.130Z,22.86
2023-05-15T11:45:56.010Z,23.20
2023-05-15T11:48:23.092Z,22.33
2023-05-15T11:50:49.715Z,22.85
2023-05-15T11:53:16.683Z,22.73
2023-05-15T11:55:44.137Z,23.03
2023-05-15T11:58:13.069Z,23.27
2023-05-15T12:00:40.521Z,22.74
2023-05-15T12:03:11.759Z,22.51
2023-05-15T12:05:53.617Z,22.70
2023-05-15T12:08:23.972Z,22.06
2023-05-15T12:10:50.650Z,21.40
2023-05-15T12:13:18.427Z,21.63
2023-05-15T12:15:46.296Z,21.53
2023-05-15T12:18:13.730Z,21.28
2023-05-15T12:20:44.914Z,21.53
2023-05-15T12:23:15.346Z,21.59
2023-05-15T12:25:43.850Z,20.59
2023-05-15T12:28:11.832Z,19.66
2023-05-15T12:30:38.474Z,19.53
2023-05-15T12:33:07.121Z,18.42
2023-05-15T12:35:34.724Z,17.25
2023-05-15T12:38:05.042Z,15.76
2023-05-15T12:40:35.749Z,15.83
2023-05-15T12:43:08.864Z,14.67
2023-05-15T12:45:38.428Z,14.36
2023-05-15T12:48:05.912Z,12.52
2023-05-15T12:50:33.796Z,12.13
2023-05-15T12:53:05.421Z,11.14
2023-05-15T12:55:34.064Z,12.03
2023-05-15T12:58:02.325Z,11.61
2023-05-15T13:00:29.934Z,11.66
2023-05-15T13:02:58.067Z,12.12
2023-05-15T13:05:25.717Z,12.59
2023-05-15T13:07:52.624Z,13.45
2023-05-15T13:10:23.738Z,13.49
2023-05-15T13:12:52.166Z,13.00
2023-05-15T13:15:45.104Z,13.77
2023-05-15T13:18:14.473Z,14.57
2023-05-15T13:20:43.552Z,14.54
2023-05-15T13:23:13.851Z,14.81
2023-05-15T13:25:41.468Z,15.48
2023-05-15T13:28:10.543Z,15.40
2023-05-15T13:30:41.902Z,15.72
2023-05-15T13:33:10.949Z,16.13
2023-05-15T13:35:38.381Z,16.24
2023-05-15T13:38:12.193Z,15.60
2023-05-15T13:40:39.196Z,15.82
2023-05-15T13:43:08.657Z,16.02
2023-05-15T13:45:35.224Z,15.84
2023-05-15T13:48:01.858Z,16.30
2023-05-15T13:50:28.505Z,16.56
2023-05-15T13:52:55.148Z,16.79
2023-05-15T13:55:23.172Z,16.86
2023-05-15T13:57:57.601Z,17.28
2023-05-15T14:00:24.329Z,16.76
2023-05-15T14:02:51.088Z,17.26
2023-05-15T14:05:17.835Z,18.66
2023-05-15T14:07:44.918Z,19.31
2023-05-15T14:10:11.873Z,19.98
2023-05-15T14:12:38.849Z,20.72
2023-05-15T14:15:05.966Z,22.01
2023-05-15T14:17:32.648Z,22.33
2023-05-15T14:19:59.258Z,22.20
2023-05-15T14:22:25.858Z,23.00
2023-05-15T14:24:55.580Z,22.65
2023-05-15T14:27:22.450Z,23.06
2023-05-15T14:29:49.556Z,23.67
2023-05-15T14:32:16.647Z,23.67
2023-05-15T14:34:43.671Z,23.67
2023-05-15T14:37:10.352Z,24.28
2023-05-15T14:39:36.931Z,23.92
2023-05-15T14:42:03.722Z,23.87
2023-05-15T14:44:30.333Z,24.99
2023-05-15T14:47:11.097Z,24.98
2023-05-15T14:49:37.816Z,24.83
2023-05-15T14:52:07.137Z,24.84
2023-05-15T14:54:33.966Z,24.83
2023-05-15T14:57:00.533Z,24.95
2023-05-15T14:59:27.601Z,25.14
2023-05-15T15:01:54.262Z,25.17
2023-05-15T15:04:21.024Z,25.61
2023-05-15T15:06:48.079Z,25.38
2023-05-15T15:09:14.657Z,25.28
2023-05-15T15:11:41.279Z,24.99
2023-05-15T15:14:07.926Z,25.16
2023-05-15T15:16:34.544Z,25.51
2023-05-15T15:19:01.239Z,25.86
2023-05-15T15:21:27.868Z,25.63
2023-05-15T15:23:55.205Z,25.65
2023-05-15T15:26:21.818Z,26.11
2023-05-15T15:28:48.767Z,26.04
2023-05-15T15:31:15.814Z,25.95
2023-05-15T15:33:42.428Z,25.52
2023-05-15T15:36:09.074Z,25.80
2023-05-15T15:38:36.019Z,25.48
2023-05-15T15:41:03.675Z,25.45
2023-05-15T15:43:30.346Z,25.63
2023-05-15T15:45:56.976Z,25.64
2023-05-15T15:48:23.740Z,26.07
2023-05-15T15:50:51.706Z,25.94
2023-05-15T15:53:18.491Z,25.99
2023-05-15T15:55:47.043Z,26.24
2023-05-15T15:58:13.951Z,26.30
2023-05-15T16:00:41.260Z,26.14
2023-05-15T16:03:08.026Z,26.29
2023-05-15T16:05:34.835Z,26.41
2023-05-15T16:08:01.426Z,26.34
2023-05-15T16:10:28.045Z,26.50
2023-05-15T16:12:54.628Z,26.20
2023-05-15T16:15:23.676Z,26.29
2023-05-15T16:17:52.860Z,26.66
2023-05-15T16:20:20.146Z,26.56
2023-05-15T16:22:46.767Z,27.22
2023-05-15T16:25:13.401Z,27.55
2023-05-15T16:27:39.895Z,27.46
2023-05-15T16:30:07.173Z,27.63
2023-05-15T16:32:34.176Z,27.65
2023-05-15T16:35:00.872Z,28.03
2023-05-15T16:37:27.544Z,28.07
2023-05-15T16:39:54.084Z,28.17
2023-05-15T16:42:20.684Z,28.28
2023-05-15T16:44:47.420Z,28.17
2023-05-15T16:47:13.964Z,28.65
2023-05-15T16:49:43.320Z,28.54
2023-05-15T16:52:43.983Z,28.58
2023-05-15T16:55:13.729Z,28.70
2023-05-15T16:57:40.437Z,29.14
2023-05-15T17:00:20.979Z,29.44
2023-05-15T17:03:10.781Z,29.42
2023-05-15T17:05:48.568Z,30.15
2023-05-15T17:08:15.325Z,30.95
2023-05-15T17:10:41.960Z,32.34
2023-05-15T17:13:08.441Z,32.72
2023-05-15T17:15:35.080Z,34.14
2023-05-15T17:18:01.702Z,34.74
2023-05-15T17:20:28.928Z,34.42
2023-05-15T17:22:55.626Z,34.38
2023-05-15T17:25:22.313Z,34.57
2023-05-15T17:27:48.850Z,34.89
2023-05-15T17:30:15.655Z,35.01
2023-05-15T17:32:42.272Z,34.98
2023-05-15T17:35:09.228Z,35.22
2023-05-15T17:37:36.029Z,35.30
2023-05-15T17:40:02.550Z,35.39
2023-05-15T17:42:29.079Z,35.19
2023-05-15T17:44:56.522Z,35.16
2023-05-15T17:47:23.279Z,35.55
2023-05-15T17:49:49.790Z,35.37
2023-05-15T17:52:16.390Z,35.34
2023-05-15T17:54:42.933Z,35.31
2023-05-15T17:57:09.489Z,35.11
2023-05-15T17:59:35.994Z,34.96
2023-05-15T18:02:02.774Z,35.41
2023-05-15T18:04:29.385Z,35.46
2023-05-15T18:06:56.129Z,35.99
2023-05-15T18:09:24.221Z,35.76
2023-05-15T18:11:51.247Z,35.55
2023-05-15T18:14:17.802Z,35.91
2023-05-15T18:16:44.351Z,35.76
2023-05-15T18:19:11.011Z,35.86
2023-05-15T18:21:38.117Z,35.89
2023-05-15T18:24:04.982Z,35.70
2023-05-15T18:26:31.473Z,35.68
2023-05-15T18:28:58.049Z,35.81
2023-05-15T18:31:24.651Z,35.84
2023-05-15T18:33:51.242Z,35.92
2023-05-15T18:36:18.249Z,35.96
2023-05-15T18:38:45.275Z,36.02
2023-05-15T18:41:11.828Z,36.32
2023-05-15T18:43:38.368Z,36.17
2023-05-15T18:46:05.668Z,36.15
2023-05-15T18:48:32.186Z,36.20
2023-05-15T18:50:58.724Z,36.36
2023-05-15T18:53:25.515Z,36.33
2023-05-15T18:55:52.146Z,36.42
2023-05-15T18:58:18.630Z,36.44
2023-05-15T19:00:45.329Z,36.50
2023-05-15T19:03:12.105Z,36.82
2023-05-15T19:05:38.700Z,36.61
2023-05-15T19:08:05.309Z,37.08
2023-05-15T19:10:31.863Z,37.47
2023-05-15T19:12:58.580Z,37.69
2023-05-15T19:15:25.498Z,37.68
2023-05-15T19:17:52.341Z,37.77
2023-05-15T19:20:19.041Z,37.84
2023-05-15T19:22:46.267Z,38.03
2023-05-15T19:25:13.001Z,38.18
2023-05-15T19:27:39.693Z,38.17
2023-05-15T19:30:07.167Z,38.49
2023-05-15T19:32:34.332Z,38.39
2023-05-15T19:35:00.996Z,38.83
2023-05-15T19:37:27.519Z,38.96
2023-05-15T19:39:54.178Z,39.11
2023-05-15T19:42:20.900Z,39.23
2023-05-15T19:44:47.402Z,39.12
2023-05-15T19:47:35.497Z,39.32
2023-05-15T19:50:02.131Z,39.54
2023-05-15T19:52:29.573Z,39.70
2023-05-15T19:54:56.092Z,39.69
2023-05-15T19:57:22.630Z,39.82
2023-05-15T19:59:49.422Z,40.26
2023-05-15T20:02:15.924Z,40.24
2023-05-15T20:04:42.497Z,40.27
2023-05-15T20:07:09.166Z,40.34
2023-05-15T20:09:37.324Z,40.91
2023-05-15T20:12:06.356Z,40.96
2023-05-15T20:14:34.226Z,40.99
2023-05-15T20:17:00.792Z,41.25
2023-05-15T20:19:27.874Z,41.58
2023-05-15T20:21:54.453Z,41.61
2023-05-15T20:24:25.649Z,40.78
2023-05-15T20:26:52.211Z,40.25
2023-05-15T20:29:18.785Z,40.50
2023-05-15T20:31:45.684Z,40.52
2023-05-15T20:34:14.902Z,40.70
2023-05-15T20:36:41.434Z,40.91
2023-05-15T20:39:08.594Z,41.04
2023-05-15T20:41:35.481Z,41.29
2023-05-15T20:44:02.096Z,40.94
2023-05-15T20:46:30.185Z,41.04
2023-05-15T20:48:57.575Z,41.21
2023-05-15T20:51:24.149Z,40.98
2023-05-15T20:53:50.955Z,40.68
2023-05-15T20:56:17.530Z,40.74
2023-05-15T20:58:44.378Z,40.64
2023-05-15T21:01:10.949Z,40.64
2023-05-15T21:03:37.511Z,40.73
2023-05-15T21:06:04.385Z,40.73
2023-05-15T21:08:30.954Z,40.54
2023-05-15T21:10:57.499Z,40.80
2023-05-15T21:13:24.235Z,40.93
2023-05-15T21:15:50.839Z,40.56
2023-05-15T21:18:18.786Z,40.58
2023-05-15T21:20:45.409Z,40.70
2023-05-15T21:23:11.894Z,40.44
2023-05-15T21:25:38.414Z,40.74
2023-05-15T21:28:04.935Z,40.61
2023-05-15T21:30:31.677Z,41.00
2023-05-15T21:32:58.216Z,40.85
2023-05-15T21:35:25.445Z,40.77
2023-05-15T21:37:51.989Z,40.63
2023-05-15T21:40:18.596Z,40.94
2023-05-15T21:42:45.165Z,41.07
2023-05-15T21:45:11.725Z,40.92
2023-05-15T21:47:38.327Z,40.75
2023-05-15T21:50:06.143Z,40.58
2023-05-15T21:52:32.993Z,40.98
2023-05-15T21:54:59.502Z,40.91
2023-05-15T21:57:26.028Z,40.73
2023-05-15T21:59:52.576Z,40.92
2023-05-15T22:02:19.096Z,40.78
2023-05-15T22:04:45.662Z,40.74
2023-05-15T22:07:14.800Z,40.70
2023-05-15T22:09:41.346Z,40.38
2023-05-15T22:12:08.182Z,40.50
2023-05-15T22:14:35.100Z,40.40
2023-05-15T22:17:01.941Z,40.34
2023-05-15T22:19:33.112Z,40.23
2023-05-15T22:22:01.101Z,40.25
2023-05-15T22:24:27.626Z,40.15
2023-05-15T22:26:54.213Z,40.10
2023-05-15T22:29:20.734Z,40.24
2023-05-15T22:31:47.371Z,40.28
2023-05-15T22:34:13.950Z,40.59
2023-05-15T22:36:41.146Z,40.60
2023-05-15T22:39:08.034Z,40.34
2023-05-15T22:41:34.600Z,40.61
2023-05-15T22:44:02.102Z,40.61
2023-05-15T22:46:28.664Z,41.02
2023-05-15T22:48:55.216Z,41.06
2023-05-15T22:51:22.221Z,40.80
2023-05-15T22:53:48.802Z,40.74
2023-05-15T22:56:15.306Z,41.15
2023-05-15T22:58:41.872Z,40.97
2023-05-15T23:01:09.129Z,41.17
2023-05-15T23:03:35.733Z,41.37
2023-05-15T23:06:02.264Z,41.31
2023-05-15T23:08:28.794Z,41.28
2023-05-15T23:10:56.222Z,41.27
2023-05-15T23:13:22.817Z,41.58
2023-05-15T23:15:49.392Z,41.30
2023-05-15T23:18:17.027Z,41.44
2023-05-15T23:20:43.599Z,41.51
2023-05-15T23:23:10.085Z,41.41
2023-05-15T23:25:36.639Z,41.40
2023-05-15T23:28:03.427Z,41.68
2023-05-15T23:30:30.079Z,41.33
2023-05-15T23:32:57.102Z,41.53
2023-05-15T23:35:23.692Z,41.14
2023-05-15T23:37:50.230Z,41.52
2023-05-15T23:40:16.778Z,41.58
2023-05-15T23:42:43.270Z,41.36
2023-05-15T23:45:10.462Z,41.20
2023-05-15T23:47:37.039Z,41.49
2023-05-15T23:50:03.815Z,41.26
2023-05-15T23:52:30.313Z,41.34
2023-05-15T23:54:57.324Z,41.31
2023-05-15T23:57:23.825Z,41.50
2023-05-15T23:59:50.850Z,41.75
